createdAt,value
2023-03-23T00:00:23.912Z,0.00
2023-03-23T00:01:23.888Z,0.00
2023-03-23T00:02:23.917Z,0.00
2023-03-23T00:03:23.900Z,0.00
2023-03-23T00:04:23.880Z,0.00
2023-03-23T00:05:23.935Z,0.00
2023-03-23T00:06:23.851Z,0.00
2023-03-23T00:07:23.842Z,0.00
2023-03-23T00:08:23.836Z,0.00
2023-03-23T00:09:23.876Z,0.00
2023-03-23T00:10:23.822Z,0.00
2023-03-23T00:11:23.807Z,0.00
2023-03-23T00:12:23.790Z,0.00
2023-03-23T00:13:24.798Z,0.00
2023-03-23T00:14:23.811Z,0.00
2023-03-23T00:15:23.758Z,0.00
2023-03-23T00:16:23.746Z,0.00
2023-03-23T00:17:23.754Z,0.00
2023-03-23T00:18:23.770Z,0.00
2023-03-23T00:19:25.101Z,0.00
2023-03-23T00:20:23.710Z,0.00
2023-03-23T00:21:23.696Z,0.00
2023-03-23T00:22:23.737Z,0.00
2023-03-23T00:23:23.674Z,0.00
2023-03-23T00:24:23.667Z,0.00
2023-03-23T00:25:23.760Z,0.00
2023-03-23T00:26:23.640Z,0.00
2023-03-23T00:27:23.658Z,0.00
2023-03-23T00:28:23.625Z,0.00
2023-03-23T00:29:23.629Z,0.00
2023-03-23T00:30:23.606Z,0.00
2023-03-23T00:31:23.596Z,0.00
2023-03-23T00:32:23.601Z,0.00
2023-03-23T00:33:23.586Z,0.00
2023-03-23T00:34:23.569Z,0.00
2023-03-23T00:35:23.612Z,0.00
2023-03-23T00:36:23.588Z,0.00
2023-03-23T00:37:23.535Z,0.00
2023-03-23T00:38:24.546Z,0.00
2023-03-23T00:39:23.519Z,0.00
2023-03-23T00:40:23.513Z,0.00
2023-03-23T00:41:23.526Z,0.00
2023-03-23T00:42:23.525Z,0.00
2023-03-23T00:43:23.478Z,0.00
2023-03-23T00:44:23.499Z,0.00
2023-03-23T00:45:23.459Z,0.00
2023-03-23T00:46:23.457Z,0.00
2023-03-23T00:47:23.442Z,0.00
2023-03-23T00:48:23.427Z,0.00
2023-03-23T00:49:23.443Z,0.00
2023-03-23T00:50:29.488Z,0.00
2023-03-23T00:51:24.401Z,0.00
2023-03-23T00:52:23.399Z,0.00
2023-03-23T00:53:23.389Z,0.00
2023-03-23T00:54:23.393Z,0.00
2023-03-23T00:55:23.361Z,0.00
2023-03-23T00:56:23.378Z,0.00
2023-03-23T00:57:23.412Z,0.00
2023-03-23T00:58:23.341Z,0.00
2023-03-23T00:59:23.344Z,0.00
2023-03-23T01:00:23.331Z,0.00
2023-03-23T01:01:23.339Z,0.00
2023-03-23T01:02:23.297Z,0.00
2023-03-23T01:03:23.289Z,0.00
2023-03-23T01:04:23.283Z,0.00
2023-03-23T01:05:23.289Z,0.00
2023-03-23T01:06:23.256Z,0.00
2023-03-23T01:07:23.245Z,0.00
2023-03-23T01:08:23.234Z,0.00
2023-03-23T01:09:23.219Z,0.00
2023-03-23T01:10:23.202Z,0.00
2023-03-23T01:11:23.218Z,0.00
2023-03-23T01:12:23.195Z,0.00
2023-03-23T01:13:23.176Z,0.00
2023-03-23T01:14:23.170Z,0.00
2023-03-23T01:15:23.165Z,0.00
2023-03-23T01:16:23.165Z,0.00
2023-03-23T01:17:23.144Z,0.00
2023-03-23T01:18:23.138Z,0.00
2023-03-23T01:19:24.650Z,0.00
2023-03-23T01:20:23.104Z,0.00
2023-03-23T01:21:23.108Z,0.00
2023-03-23T01:22:23.090Z,0.00
2023-03-23T01:23:23.088Z,0.00
2023-03-23T01:24:23.090Z,0.00
2023-03-23T01:25:23.079Z,0.00
2023-03-23T01:26:23.054Z,0.00
2023-03-23T01:27:23.043Z,0.00
2023-03-23T01:28:23.054Z,0.00
2023-03-23T01:29:23.022Z,0.00
2023-03-23T01:30:23.010Z,0.00
2023-03-23T01:31:23.064Z,0.00
2023-03-23T01:32:22.992Z,0.00
2023-03-23T01:33:22.976Z,0.00
2023-03-23T01:34:22.968Z,0.00
2023-03-23T01:35:22.995Z,0.00
2023-03-23T01:36:22.974Z,0.00
2023-03-23T01:37:22.945Z,0.00
2023-03-23T01:38:22.951Z,0.00
2023-03-23T01:39:22.933Z,0.00
2023-03-23T01:40:22.916Z,0.00
2023-03-23T01:41:22.910Z,0.00
2023-03-23T01:42:22.908Z,0.00
2023-03-23T01:43:22.904Z,0.00
2023-03-23T01:44:22.882Z,0.00
2023-03-23T01:45:22.875Z,0.00
2023-03-23T01:46:22.886Z,0.00
2023-03-23T01:47:22.852Z,0.00
2023-03-23T01:48:22.842Z,0.00
2023-03-23T01:49:22.840Z,0.00
2023-03-23T01:50:22.815Z,0.00
2023-03-23T01:51:26.233Z,0.00
2023-03-23T01:52:23.924Z,0.00
2023-03-23T01:53:22.788Z,0.00
2023-03-23T01:54:22.799Z,0.00
2023-03-23T01:55:22.767Z,0.00
2023-03-23T01:56:22.757Z,0.00
2023-03-23T01:57:22.754Z,0.00
2023-03-23T01:58:22.730Z,0.00
2023-03-23T01:59:54.661Z,0.00
2023-03-23T02:00:22.718Z,0.00
2023-03-23T02:01:22.731Z,0.00
2023-03-23T02:02:22.750Z,0.00
2023-03-23T02:03:22.717Z,0.00
2023-03-23T02:04:22.689Z,0.00
2023-03-23T02:05:22.676Z,0.00
2023-03-23T02:06:22.667Z,0.00
2023-03-23T02:07:22.665Z,0.00
2023-03-23T02:08:22.669Z,0.00
2023-03-23T02:09:22.661Z,0.00
2023-03-23T02:10:22.622Z,0.00
2023-03-23T02:11:22.629Z,0.00
2023-03-23T02:12:22.600Z,0.00
2023-03-23T02:13:22.608Z,0.00
2023-03-23T02:14:22.577Z,0.00
2023-03-23T02:15:22.572Z,0.00
2023-03-23T02:16:22.606Z,0.00
2023-03-23T02:17:22.548Z,0.00
2023-03-23T02:18:22.567Z,0.00
2023-03-23T02:19:22.546Z,0.00
2023-03-23T02:20:22.523Z,0.00
2023-03-23T02:21:22.520Z,0.00
2023-03-23T02:22:22.509Z,0.00
2023-03-23T02:23:22.522Z,0.00
2023-03-23T02:24:22.483Z,0.00
2023-03-23T02:25:22.483Z,0.00
2023-03-23T02:26:22.468Z,0.00
2023-03-23T02:27:22.448Z,0.00
2023-03-23T02:28:22.446Z,0.00
2023-03-23T02:29:22.461Z,0.00
2023-03-23T02:30:22.428Z,0.00
2023-03-23T02:31:22.433Z,0.00
2023-03-23T02:32:22.433Z,0.00
2023-03-23T02:33:23.394Z,0.00
2023-03-23T02:34:22.415Z,0.00
2023-03-23T02:35:22.410Z,0.00
2023-03-23T02:36:22.368Z,0.00
2023-03-23T02:37:22.363Z,0.00
2023-03-23T02:38:22.393Z,0.00
2023-03-23T02:39:22.378Z,0.00
2023-03-23T02:40:22.318Z,0.00
2023-03-23T02:41:22.327Z,0.00
2023-03-23T02:42:22.338Z,0.00
2023-03-23T02:43:22.312Z,0.00
2023-03-23T02:44:23.286Z,0.00
2023-03-23T02:45:22.275Z,4.00
2023-03-23T02:46:22.269Z,4.00
2023-03-23T02:47:22.284Z,4.00
2023-03-23T02:48:22.253Z,4.00
2023-03-23T02:49:22.301Z,0.00
2023-03-23T02:50:22.238Z,0.00
2023-03-23T02:51:22.221Z,0.00
2023-03-23T02:52:22.232Z,0.00
2023-03-23T02:53:22.196Z,0.00
2023-03-23T02:54:22.185Z,0.00
2023-03-23T02:55:22.221Z,0.00
2023-03-23T02:56:22.201Z,0.00
2023-03-23T02:57:22.203Z,0.00
2023-03-23T02:58:23.157Z,0.00
2023-03-23T02:59:22.144Z,0.00
2023-03-23T03:00:22.153Z,0.00
2023-03-23T03:01:22.128Z,0.00
2023-03-23T03:02:22.107Z,0.00
2023-03-23T03:03:22.098Z,0.00
2023-03-23T03:04:22.101Z,4.00
2023-03-23T03:05:22.117Z,4.00
2023-03-23T03:06:22.069Z,4.00
2023-03-23T03:07:22.047Z,0.00
2023-03-23T03:08:22.058Z,0.00
2023-03-23T03:09:22.037Z,0.00
2023-03-23T03:10:22.026Z,0.00
2023-03-23T03:11:22.039Z,0.00
2023-03-23T03:12:22.041Z,0.00
2023-03-23T03:13:22.001Z,0.00
2023-03-23T03:14:22.006Z,0.00
2023-03-23T03:15:21.997Z,0.00
2023-03-23T03:16:21.974Z,0.00
2023-03-23T03:17:21.986Z,0.00
2023-03-23T03:18:21.999Z,0.00
2023-03-23T03:19:21.948Z,0.00
2023-03-23T03:20:21.970Z,0.00
2023-03-23T03:21:21.940Z,0.00
2023-03-23T03:22:21.906Z,0.00
2023-03-23T03:23:21.931Z,0.00
2023-03-23T03:24:22.010Z,0.00
2023-03-23T03:25:21.948Z,0.00
2023-03-23T03:26:21.891Z,0.00
2023-03-23T03:27:21.867Z,0.00
2023-03-23T03:28:21.868Z,0.00
2023-03-23T03:29:21.850Z,0.00
2023-03-23T03:30:21.885Z,0.00
2023-03-23T03:31:21.844Z,0.00
2023-03-23T03:32:21.810Z,0.00
2023-03-23T03:33:21.825Z,0.00
2023-03-23T03:34:21.818Z,0.00
2023-03-23T03:35:21.783Z,0.00
2023-03-23T03:36:21.785Z,0.00
2023-03-23T03:37:21.793Z,0.00
2023-03-23T03:38:21.770Z,0.00
2023-03-23T03:39:21.751Z,0.00
2023-03-23T03:40:21.757Z,0.00
2023-03-23T03:41:21.736Z,0.00
2023-03-23T03:42:21.720Z,0.00
2023-03-23T03:43:21.722Z,0.00
2023-03-23T03:44:21.702Z,0.00
2023-03-23T03:45:21.743Z,0.00
2023-03-23T03:46:21.676Z,0.00
2023-03-23T03:47:21.658Z,0.00
2023-03-23T03:48:21.684Z,0.00
2023-03-23T03:49:21.644Z,0.00
2023-03-23T03:50:21.638Z,0.00
2023-03-23T03:51:21.625Z,0.00
2023-03-23T03:52:21.618Z,0.00
2023-03-23T03:53:21.602Z,0.00
2023-03-23T03:54:22.621Z,0.00
2023-03-23T03:55:21.595Z,0.00
2023-03-23T03:56:21.586Z,0.00
2023-03-23T03:57:21.603Z,0.00
2023-03-23T03:58:21.565Z,0.00
2023-03-23T03:59:23.230Z,0.00
2023-03-23T04:00:21.586Z,0.00
2023-03-23T04:01:21.537Z,0.00
2023-03-23T04:02:21.568Z,0.00
2023-03-23T04:03:21.510Z,0.00
2023-03-23T04:04:21.508Z,0.00
2023-03-23T04:05:21.484Z,0.00
2023-03-23T04:06:21.477Z,0.00
2023-03-23T04:07:21.511Z,0.00
2023-03-23T04:08:21.547Z,0.00
2023-03-23T04:09:21.451Z,0.00
2023-03-23T04:10:32.864Z,0.00
2023-03-23T04:11:33.305Z,0.00
2023-03-23T04:12:21.414Z,0.00
2023-03-23T04:13:21.422Z,0.00
2023-03-23T04:14:21.405Z,0.00
2023-03-23T04:15:21.393Z,0.00
2023-03-23T04:16:21.384Z,0.00
2023-03-23T04:17:21.369Z,0.00
2023-03-23T04:18:21.367Z,0.00
2023-03-23T04:19:21.397Z,0.00
2023-03-23T04:20:32.060Z,0.00
2023-03-23T04:21:22.330Z,0.00
2023-03-23T04:22:21.337Z,0.00
2023-03-23T04:23:21.323Z,0.00
2023-03-23T04:24:23.064Z,0.00
2023-03-23T04:25:21.300Z,0.00
2023-03-23T04:26:21.284Z,0.00
2023-03-23T04:27:21.307Z,0.00
2023-03-23T04:28:21.264Z,0.00
2023-03-23T04:29:21.303Z,0.00
2023-03-23T04:30:21.250Z,0.00
2023-03-23T04:31:21.242Z,0.00
2023-03-23T04:32:21.253Z,0.00
2023-03-23T04:33:22.313Z,0.00
2023-03-23T04:34:21.201Z,0.00
2023-03-23T04:35:21.194Z,0.00
2023-03-23T04:36:21.215Z,0.00
2023-03-23T04:37:21.173Z,0.00
2023-03-23T04:38:21.218Z,0.00
2023-03-23T04:39:21.181Z,0.00
2023-03-23T04:40:21.218Z,0.00
2023-03-23T04:41:21.129Z,0.00
2023-03-23T04:42:21.124Z,0.00
2023-03-23T04:43:21.126Z,0.00
2023-03-23T04:44:21.156Z,0.00
2023-03-23T04:45:21.128Z,0.00
2023-03-23T04:46:21.083Z,0.00
2023-03-23T04:47:21.070Z,0.00
2023-03-23T04:48:21.126Z,0.00
2023-03-23T04:49:21.066Z,0.00
2023-03-23T04:50:21.051Z,0.00
2023-03-23T04:51:21.044Z,0.00
2023-03-23T04:52:21.036Z,0.00
2023-03-23T04:53:21.049Z,0.00
2023-03-23T04:54:21.019Z,0.00
2023-03-23T04:55:20.989Z,0.00
2023-03-23T04:56:21.002Z,0.00
2023-03-23T04:57:20.971Z,0.00
2023-03-23T04:58:20.966Z,0.00
2023-03-23T04:59:20.956Z,4.00
2023-03-23T05:00:20.965Z,0.00
2023-03-23T05:01:21.012Z,4.00
2023-03-23T05:02:20.927Z,4.00
2023-03-23T05:03:20.943Z,4.00
2023-03-23T05:04:20.907Z,8.00
2023-03-23T05:05:20.955Z,4.00
2023-03-23T05:06:20.873Z,8.00
2023-03-23T05:07:20.894Z,8.00
2023-03-23T05:08:20.896Z,12.00
2023-03-23T05:09:20.928Z,8.00
2023-03-23T05:10:25.153Z,12.00
2023-03-23T05:11:20.849Z,12.00
2023-03-23T05:12:20.815Z,16.00
2023-03-23T05:13:20.875Z,12.00
2023-03-23T05:14:20.821Z,20.00
2023-03-23T05:15:20.791Z,20.00
2023-03-23T05:16:20.803Z,20.00
2023-03-23T05:17:20.769Z,24.00
2023-03-23T05:18:20.798Z,28.00
2023-03-23T05:19:20.743Z,32.00
2023-03-23T05:20:20.729Z,32.00
2023-03-23T05:21:20.740Z,40.00
2023-03-23T05:22:20.734Z,44.00
2023-03-23T05:23:20.791Z,48.00
2023-03-23T05:24:20.739Z,52.00
2023-03-23T05:25:20.688Z,56.00
2023-03-23T05:26:20.682Z,56.00
2023-03-23T05:27:20.660Z,60.00
2023-03-23T05:28:21.681Z,64.00
2023-03-23T05:29:20.648Z,64.00
2023-03-23T05:30:20.663Z,76.00
2023-03-23T05:31:20.647Z,88.00
2023-03-23T05:32:20.641Z,108.00
2023-03-23T05:33:20.610Z,136.00
2023-03-23T05:34:20.609Z,164.00
2023-03-23T05:35:20.674Z,184.00
2023-03-23T05:36:20.682Z,196.00
2023-03-23T05:37:20.570Z,216.00
2023-03-23T05:38:20.561Z,228.00
2023-03-23T05:39:20.545Z,244.00
2023-03-23T05:40:20.550Z,260.00
2023-03-23T05:41:20.532Z,272.00
2023-03-23T05:42:20.509Z,280.00
2023-03-23T05:43:20.500Z,288.00
2023-03-23T05:44:20.512Z,284.00
2023-03-23T05:45:20.496Z,280.00
2023-03-23T05:46:20.512Z,280.00
2023-03-23T05:47:20.469Z,288.00
2023-03-23T05:48:20.453Z,292.00
2023-03-23T05:49:20.429Z,296.00
2023-03-23T05:50:20.430Z,300.00
2023-03-23T05:51:20.415Z,288.00
2023-03-23T05:52:20.426Z,292.00
2023-03-23T05:53:20.432Z,292.00
2023-03-23T05:54:20.390Z,320.00
2023-03-23T05:55:20.413Z,324.00
2023-03-23T05:56:20.372Z,356.00
2023-03-23T05:57:20.377Z,388.00
2023-03-23T05:58:20.349Z,416.00
2023-03-23T05:59:20.332Z,472.00
2023-03-23T06:00:20.343Z,528.00
2023-03-23T06:01:20.333Z,584.00
2023-03-23T06:02:20.321Z,632.00
2023-03-23T06:03:20.375Z,652.00
2023-03-23T06:04:20.292Z,652.00
2023-03-23T06:05:20.311Z,640.00
2023-03-23T06:06:20.281Z,608.00
2023-03-23T06:07:20.273Z,584.00
2023-03-23T06:08:20.298Z,580.00
2023-03-23T06:09:20.238Z,576.00
2023-03-23T06:10:20.266Z,592.00
2023-03-23T06:11:20.244Z,608.00
2023-03-23T06:12:20.223Z,628.00
2023-03-23T06:13:20.199Z,640.00
2023-03-23T06:14:20.258Z,640.00
2023-03-23T06:15:20.200Z,636.00
2023-03-23T06:16:21.177Z,636.00
2023-03-23T06:17:20.164Z,632.00
2023-03-23T06:18:20.168Z,652.00
2023-03-23T06:19:20.147Z,680.00
2023-03-23T06:20:20.125Z,740.00
2023-03-23T06:21:20.141Z,800.00
2023-03-23T06:22:20.118Z,864.00
2023-03-23T06:23:20.104Z,936.00
2023-03-23T06:24:20.114Z,1012.00
2023-03-23T06:25:20.079Z,1084.00
2023-03-23T06:26:20.096Z,1156.00
2023-03-23T06:27:20.111Z,1236.00
2023-03-23T06:28:20.127Z,1336.00
2023-03-23T06:29:20.053Z,1464.00
2023-03-23T06:30:20.062Z,1604.00
2023-03-23T06:31:20.032Z,1708.00
2023-03-23T06:32:20.017Z,1764.00
2023-03-23T06:33:20.987Z,1820.00
2023-03-23T06:34:21.060Z,1872.00
2023-03-23T06:35:19.977Z,1892.00
2023-03-23T06:36:20.019Z,1880.00
2023-03-23T06:37:20.055Z,1816.00
2023-03-23T06:38:19.953Z,1700.00
2023-03-23T06:39:19.954Z,1556.00
2023-03-23T06:40:19.959Z,1412.00
2023-03-23T06:41:19.916Z,1284.00
2023-03-23T06:42:19.901Z,1180.00
2023-03-23T06:43:19.956Z,1120.00
2023-03-23T06:44:19.907Z,1100.00
2023-03-23T06:45:19.910Z,1088.00
2023-03-23T06:46:19.888Z,1084.00
2023-03-23T06:47:19.940Z,1124.00
2023-03-23T06:48:19.872Z,1224.00
2023-03-23T06:49:21.093Z,1384.00
2023-03-23T06:50:20.212Z,1620.00
2023-03-23T06:51:19.912Z,1912.00
2023-03-23T06:52:19.829Z,2236.00
2023-03-23T06:53:19.801Z,2476.00
2023-03-23T06:54:19.781Z,2560.00
2023-03-23T06:55:19.814Z,2592.00
2023-03-23T06:56:19.757Z,2616.00
2023-03-23T06:57:19.776Z,2624.00
2023-03-23T06:58:19.791Z,2464.00
2023-03-23T06:59:19.755Z,2168.00
2023-03-23T07:00:19.735Z,1976.00
2023-03-23T07:01:19.754Z,1868.00
2023-03-23T07:02:19.731Z,1920.00
2023-03-23T07:03:19.724Z,2168.00
2023-03-23T07:04:43.304Z,2560.00
2023-03-23T07:05:25.919Z,3356.00
2023-03-23T07:06:20.694Z,4444.00
2023-03-23T07:07:20.688Z,5512.00
2023-03-23T07:08:19.661Z,6560.00
2023-03-23T07:09:20.439Z,7840.00
2023-03-23T07:10:19.671Z,9192.00
2023-03-23T07:11:20.633Z,11308.00
2023-03-23T07:12:19.643Z,13496.00
2023-03-23T07:13:19.625Z,19488.00
2023-03-23T07:14:19.621Z,35040.00
2023-03-23T07:15:19.590Z,38400.00
2023-03-23T07:16:20.194Z,39456.00
2023-03-23T07:17:20.311Z,26720.00
2023-03-23T07:18:19.566Z,20736.00
2023-03-23T07:19:19.584Z,12324.00
2023-03-23T07:20:19.584Z,8976.00
2023-03-23T07:21:19.536Z,7836.00
2023-03-23T07:22:19.516Z,7440.00
2023-03-23T07:23:19.521Z,7676.00
2023-03-23T07:24:19.501Z,8248.00
2023-03-23T07:25:19.513Z,8664.00
2023-03-23T07:26:19.552Z,8480.00
2023-03-23T07:27:19.459Z,8308.00
2023-03-23T07:28:19.455Z,8256.00
2023-03-23T07:29:19.483Z,8160.00
2023-03-23T07:30:19.533Z,7784.00
2023-03-23T07:31:19.444Z,7228.00
2023-03-23T07:32:19.431Z,6792.00
2023-03-23T07:33:19.405Z,6296.00
2023-03-23T07:34:19.391Z,6092.00
2023-03-23T07:35:19.414Z,5960.00
2023-03-23T07:36:19.472Z,5936.00
2023-03-23T07:37:19.382Z,6108.00
2023-03-23T07:38:19.375Z,6320.00
2023-03-23T07:39:19.341Z,6360.00
2023-03-23T07:40:19.337Z,6444.00
2023-03-23T07:41:19.350Z,6556.00
2023-03-23T07:42:19.323Z,6464.00
2023-03-23T07:43:19.323Z,6596.00
2023-03-23T07:44:19.328Z,6404.00
2023-03-23T07:45:19.284Z,6484.00
2023-03-23T07:46:19.288Z,6592.00
2023-03-23T07:47:19.273Z,6604.00
2023-03-23T07:48:21.439Z,6580.00
2023-03-23T07:49:19.279Z,6620.00
2023-03-23T07:50:19.268Z,6520.00
2023-03-23T07:51:19.248Z,6140.00
2023-03-23T07:52:19.246Z,5712.00
2023-03-23T07:53:19.234Z,5356.00
2023-03-23T07:54:19.202Z,5072.00
2023-03-23T07:55:19.191Z,4832.00
2023-03-23T07:56:19.199Z,4816.00
2023-03-23T07:57:19.222Z,4752.00
2023-03-23T07:58:19.193Z,4752.00
2023-03-23T07:59:30.708Z,4916.00
2023-03-23T08:00:19.154Z,5236.00
2023-03-23T08:01:19.135Z,5520.00
2023-03-23T08:02:19.116Z,5552.00
2023-03-23T08:03:19.111Z,5364.00
2023-03-23T08:04:19.133Z,5300.00
2023-03-23T08:05:19.092Z,5592.00
2023-03-23T08:06:19.082Z,6080.00
2023-03-23T08:07:19.674Z,6560.00
2023-03-23T08:08:19.213Z,7108.00
2023-03-23T08:09:19.069Z,7676.00
2023-03-23T08:10:19.040Z,8316.00
2023-03-23T08:11:19.040Z,8920.00
2023-03-23T08:12:19.033Z,8800.00
2023-03-23T08:13:20.032Z,8928.00
2023-03-23T08:14:21.890Z,9176.00
2023-03-23T08:15:20.007Z,9176.00
2023-03-23T08:16:18.965Z,9144.00
2023-03-23T08:17:19.962Z,9268.00
2023-03-23T08:18:18.972Z,9520.00
2023-03-23T08:19:18.968Z,9788.00
2023-03-23T08:20:18.951Z,10020.00
2023-03-23T08:21:18.962Z,10224.00
2023-03-23T08:22:18.924Z,9992.00
2023-03-23T08:23:18.930Z,10296.00
2023-03-23T08:24:18.910Z,10200.00
2023-03-23T08:25:18.888Z,9816.00
2023-03-23T08:26:18.882Z,9564.00
2023-03-23T08:27:18.859Z,9544.00
2023-03-23T08:28:18.900Z,9608.00
2023-03-23T08:29:18.856Z,9756.00
2023-03-23T08:30:18.837Z,9532.00
2023-03-23T08:31:18.823Z,9744.00
2023-03-23T08:32:18.881Z,10496.00
2023-03-23T08:33:18.811Z,11776.00
2023-03-23T08:34:18.804Z,11904.00
2023-03-23T08:35:18.795Z,11928.00
2023-03-23T08:36:18.806Z,11792.00
2023-03-23T08:37:18.782Z,11936.00
2023-03-23T08:38:18.760Z,11192.00
2023-03-23T08:39:18.763Z,10680.00
2023-03-23T08:40:18.762Z,9352.00
2023-03-23T08:41:18.744Z,8724.00
2023-03-23T08:42:18.711Z,8172.00
2023-03-23T08:43:18.788Z,7456.00
2023-03-23T08:44:18.690Z,7324.00
2023-03-23T08:45:18.703Z,7016.00
2023-03-23T08:46:18.698Z,6788.00
2023-03-23T08:47:18.672Z,6720.00
2023-03-23T08:48:18.660Z,6720.00
2023-03-23T08:49:18.640Z,6652.00
2023-03-23T08:50:18.635Z,6596.00
2023-03-23T08:51:18.646Z,6924.00
2023-03-23T08:52:18.612Z,7128.00
2023-03-23T08:53:18.606Z,7380.00
2023-03-23T08:54:18.631Z,7612.00
2023-03-23T08:55:20.338Z,7884.00
2023-03-23T08:56:18.579Z,8180.00
2023-03-23T08:57:18.588Z,8492.00
2023-03-23T08:58:18.612Z,8732.00
2023-03-23T08:59:18.572Z,8848.00
2023-03-23T09:00:18.562Z,8832.00
2023-03-23T09:01:18.551Z,8612.00
2023-03-23T09:02:18.518Z,8248.00
2023-03-23T09:03:18.513Z,7864.00
2023-03-23T09:04:18.526Z,7732.00
2023-03-23T09:05:18.489Z,7840.00
2023-03-23T09:06:18.544Z,7880.00
2023-03-23T09:07:18.483Z,7828.00
2023-03-23T09:08:18.470Z,7508.00
2023-03-23T09:09:18.466Z,6852.00
2023-03-23T09:10:18.439Z,6668.00
2023-03-23T09:11:18.423Z,6680.00
2023-03-23T09:12:18.411Z,6264.00
2023-03-23T09:13:18.416Z,6132.00
2023-03-23T09:14:18.414Z,6284.00
2023-03-23T09:15:21.158Z,6484.00
2023-03-23T09:16:20.365Z,6592.00
2023-03-23T09:17:18.359Z,6688.00
2023-03-23T09:18:18.360Z,6664.00
2023-03-23T09:19:18.365Z,6604.00
2023-03-23T09:20:18.327Z,6968.00
2023-03-23T09:21:19.236Z,7400.00
2023-03-23T09:22:18.324Z,7396.00
2023-03-23T09:23:18.291Z,7304.00
2023-03-23T09:24:18.351Z,7328.00
2023-03-23T09:25:18.278Z,7176.00
2023-03-23T09:26:18.269Z,6724.00
2023-03-23T09:27:18.249Z,7180.00
2023-03-23T09:28:18.239Z,8024.00
2023-03-23T09:29:18.221Z,8156.00
2023-03-23T09:30:18.271Z,7656.00
2023-03-23T09:31:19.958Z,7256.00
2023-03-23T09:32:18.199Z,7324.00
2023-03-23T09:33:18.193Z,6916.00
2023-03-23T09:34:18.188Z,7212.00
2023-03-23T09:35:18.209Z,7168.00
2023-03-23T09:36:18.197Z,6856.00
2023-03-23T09:37:18.176Z,7176.00
2023-03-23T09:38:18.176Z,7204.00
2023-03-23T09:39:18.134Z,6984.00
2023-03-23T09:40:18.119Z,6796.00
2023-03-23T09:41:18.146Z,6280.00
2023-03-23T09:42:18.110Z,6372.00
2023-03-23T09:43:18.104Z,7256.00
2023-03-23T09:44:18.080Z,7580.00
2023-03-23T09:45:18.078Z,7352.00
2023-03-23T09:46:18.097Z,7976.00
2023-03-23T09:47:18.080Z,8288.00
2023-03-23T09:48:18.052Z,8812.00
2023-03-23T09:49:18.044Z,9368.00
2023-03-23T09:50:18.061Z,9632.00
2023-03-23T09:51:18.039Z,9180.00
2023-03-23T09:52:18.008Z,9208.00
2023-03-23T09:53:19.546Z,8624.00
2023-03-23T09:54:18.010Z,8972.00
2023-03-23T09:55:18.037Z,9368.00
2023-03-23T09:56:17.981Z,9388.00
2023-03-23T09:57:17.985Z,8892.00
2023-03-23T09:58:17.946Z,8892.00
2023-03-23T09:59:17.938Z,9684.00
2023-03-23T10:00:17.975Z,9912.00
2023-03-23T10:01:17.922Z,9884.00
2023-03-23T10:02:17.920Z,9564.00
2023-03-23T10:03:17.891Z,10032.00
2023-03-23T10:04:17.875Z,10516.00
2023-03-23T10:05:17.878Z,10744.00
2023-03-23T10:06:17.865Z,11324.00
2023-03-23T10:07:17.874Z,11860.00
2023-03-23T10:08:17.846Z,12804.00
2023-03-23T10:09:17.843Z,13328.00
2023-03-23T10:10:17.833Z,12472.00
2023-03-23T10:11:17.814Z,10924.00
2023-03-23T10:12:17.820Z,9660.00
2023-03-23T10:13:17.827Z,9652.00
2023-03-23T10:14:17.786Z,10228.00
2023-03-23T10:15:17.845Z,10128.00
2023-03-23T10:16:17.764Z,9476.00
2023-03-23T10:17:17.788Z,8436.00
2023-03-23T10:18:17.759Z,8028.00
2023-03-23T10:19:17.765Z,7584.00
2023-03-23T10:20:17.721Z,7660.00
2023-03-23T10:21:17.716Z,7484.00
2023-03-23T10:22:17.696Z,7608.00
2023-03-23T10:23:17.699Z,7952.00
2023-03-23T10:24:17.706Z,8404.00
2023-03-23T10:25:17.672Z,8284.00
2023-03-23T10:26:17.691Z,8452.00
2023-03-23T10:27:17.654Z,8236.00
2023-03-23T10:28:17.668Z,7720.00
2023-03-23T10:29:17.663Z,7340.00
2023-03-23T10:30:17.638Z,6776.00
2023-03-23T10:31:17.604Z,7188.00
2023-03-23T10:32:19.473Z,7692.00
2023-03-23T10:33:17.628Z,8128.00
2023-03-23T10:34:17.611Z,8264.00
2023-03-23T10:35:17.586Z,7836.00
2023-03-23T10:36:17.568Z,7972.00
2023-03-23T10:37:17.581Z,8256.00
2023-03-23T10:38:17.558Z,8288.00
2023-03-23T10:39:17.579Z,8232.00
2023-03-23T10:40:17.515Z,8368.00
2023-03-23T10:41:17.592Z,7928.00
2023-03-23T10:42:17.507Z,6900.00
2023-03-23T10:43:17.502Z,7080.00
2023-03-23T10:44:17.478Z,7500.00
2023-03-23T10:45:17.489Z,7512.00
2023-03-23T10:46:29.766Z,6828.00
2023-03-23T10:47:19.485Z,6452.00
2023-03-23T10:48:17.436Z,7008.00
2023-03-23T10:49:17.412Z,7304.00
2023-03-23T10:50:17.400Z,7336.00
2023-03-23T10:51:17.397Z,7872.00
2023-03-23T10:52:17.399Z,7688.00
2023-03-23T10:53:17.378Z,6780.00
2023-03-23T10:54:17.356Z,6548.00
2023-03-23T10:55:18.355Z,7296.00
2023-03-23T10:56:17.338Z,9900.00
2023-03-23T10:57:17.328Z,11856.00
2023-03-23T10:58:17.335Z,12576.00
2023-03-23T10:59:17.329Z,12236.00
2023-03-23T11:00:17.304Z,12092.00
2023-03-23T11:01:17.297Z,11064.00
2023-03-23T11:02:29.197Z,9008.00
2023-03-23T11:03:18.282Z,8108.00
2023-03-23T11:04:17.275Z,8044.00
2023-03-23T11:05:20.277Z,8964.00
2023-03-23T11:06:18.254Z,9368.00
2023-03-23T11:07:17.292Z,9828.00
2023-03-23T11:08:17.228Z,9272.00
2023-03-23T11:09:36.298Z,8892.00
2023-03-23T11:10:17.224Z,9132.00
2023-03-23T11:11:17.228Z,10136.00
2023-03-23T11:12:17.174Z,9096.00
2023-03-23T11:13:17.176Z,8828.00
2023-03-23T11:14:17.197Z,8844.00
2023-03-23T11:15:17.163Z,8376.00
2023-03-23T11:16:17.145Z,7792.00
2023-03-23T11:17:17.125Z,6672.00
2023-03-23T11:18:17.125Z,6436.00
2023-03-23T11:19:17.125Z,6332.00
2023-03-23T11:20:17.119Z,7052.00
2023-03-23T11:21:17.094Z,8676.00
2023-03-23T11:22:17.089Z,8684.00
2023-03-23T11:23:17.065Z,8732.00
2023-03-23T11:24:17.064Z,8720.00
2023-03-23T11:25:17.045Z,9212.00
2023-03-23T11:26:17.077Z,9500.00
2023-03-23T11:27:17.054Z,9328.00
2023-03-23T11:28:17.015Z,10776.00
2023-03-23T11:29:17.019Z,14332.00
2023-03-23T11:30:16.992Z,17088.00
2023-03-23T11:31:16.980Z,16328.00
2023-03-23T11:32:16.990Z,16580.00
2023-03-23T11:33:16.962Z,17376.00
2023-03-23T11:34:16.986Z,18816.00
2023-03-23T11:35:16.985Z,17760.00
2023-03-23T11:36:16.995Z,16616.00
2023-03-23T11:37:16.941Z,17056.00
2023-03-23T11:38:16.918Z,15880.00
2023-03-23T11:39:16.904Z,15200.00
2023-03-23T11:40:16.908Z,14904.00
2023-03-23T11:41:16.886Z,14944.00
2023-03-23T11:42:16.897Z,14220.00
2023-03-23T11:43:16.921Z,14100.00
2023-03-23T11:44:16.844Z,12876.00
2023-03-23T11:45:16.857Z,11540.00
2023-03-23T11:46:16.825Z,9928.00
2023-03-23T11:47:16.819Z,8980.00
2023-03-23T11:48:16.810Z,9756.00
2023-03-23T11:49:25.381Z,10540.00
2023-03-23T11:50:17.785Z,10772.00
2023-03-23T11:51:16.764Z,10424.00
2023-03-23T11:52:16.761Z,9408.00
2023-03-23T11:53:16.760Z,8672.00
2023-03-23T11:54:16.797Z,7756.00
2023-03-23T11:55:16.749Z,6852.00
2023-03-23T11:56:16.768Z,7116.00
2023-03-23T11:57:16.716Z,7728.00
2023-03-23T11:58:16.715Z,6672.00
2023-03-23T11:59:16.712Z,5596.00
2023-03-23T12:00:16.690Z,4456.00
2023-03-23T12:01:16.694Z,3404.00
2023-03-23T12:02:17.248Z,3344.00
2023-03-23T12:03:17.683Z,3416.00
2023-03-23T12:04:16.657Z,3540.00
2023-03-23T12:05:16.638Z,3888.00
2023-03-23T12:06:16.636Z,3124.00
2023-03-23T12:07:16.668Z,2520.00
2023-03-23T12:08:16.621Z,2464.00
2023-03-23T12:09:16.602Z,2728.00
2023-03-23T12:10:21.792Z,2408.00
2023-03-23T12:11:17.598Z,2652.00
2023-03-23T12:12:16.579Z,3288.00
2023-03-23T12:13:20.935Z,3884.00
2023-03-23T12:14:16.551Z,3980.00
2023-03-23T12:15:16.550Z,3624.00
2023-03-23T12:16:16.535Z,3468.00
2023-03-23T12:17:16.513Z,2872.00
2023-03-23T12:18:16.510Z,2408.00
2023-03-23T12:19:16.485Z,2156.00
2023-03-23T12:20:16.478Z,2224.00
2023-03-23T12:21:16.489Z,2316.00
2023-03-23T12:22:16.463Z,2592.00
2023-03-23T12:23:16.457Z,2752.00
2023-03-23T12:24:16.455Z,2896.00
2023-03-23T12:25:16.437Z,2836.00
2023-03-23T12:26:16.448Z,2692.00
2023-03-23T12:27:16.429Z,2632.00
2023-03-23T12:28:16.474Z,2356.00
2023-03-23T12:29:16.384Z,2504.00
2023-03-23T12:30:16.441Z,2036.00
2023-03-23T12:31:16.375Z,1800.00
2023-03-23T12:32:16.425Z,1852.00
2023-03-23T12:33:16.372Z,1664.00
2023-03-23T12:34:16.342Z,1460.00
2023-03-23T12:35:16.320Z,1204.00